createdAt,value
2022-12-31T00:00:13.759Z,58.32
2022-12-31T00:03:36.496Z,58.42
2022-12-31T00:06:39.007Z,58.20
2022-12-31T00:09:42.410Z,58.28
2022-12-31T00:12:45.857Z,58.38
2022-12-31T00:15:48.099Z,58.49
2022-12-31T00:18:53.198Z,58.61
2022-12-31T00:21:55.406Z,58.68
2022-12-31T00:24:57.791Z,58.15
2022-12-31T00:28:00.306Z,58.00
2022-12-31T00:31:11.525Z,58.24
2022-12-31T00:34:13.755Z,58.10
2022-12-31T00:37:16.310Z,58.34
2022-12-31T00:40:18.867Z,58.16
2022-12-31T00:43:22.344Z,58.07
2022-12-31T00:46:25.578Z,58.05
2022-12-31T00:49:28.542Z,57.98
2022-12-31T00:52:31.074Z,58.02
2022-12-31T00:55:33.795Z,58.03
2022-12-31T00:58:35.843Z,58.29
2022-12-31T01:01:40.588Z,58.21
2022-12-31T01:04:42.832Z,58.29
2022-12-31T01:07:46.001Z,58.41
2022-12-31T01:11:08.603Z,58.41
2022-12-31T01:14:17.277Z,58.54
2022-12-31T01:17:19.336Z,58.28
2022-12-31T01:20:21.802Z,58.53
2022-12-31T01:23:23.890Z,58.60
2022-12-31T01:26:27.177Z,58.84
2022-12-31T01:29:30.293Z,58.67
2022-12-31T01:32:33.189Z,58.79
2022-12-31T01:35:36.836Z,58.63
2022-12-31T01:38:39.408Z,58.90
2022-12-31T01:41:44.631Z,58.92
2022-12-31T01:44:57.349Z,58.73
2022-12-31T01:48:00.353Z,58.82
2022-12-31T01:51:03.245Z,58.75
2022-12-31T01:54:08.163Z,58.97
2022-12-31T01:57:12.618Z,58.93
2022-12-31T02:00:15.323Z,59.04
2022-12-31T02:03:23.295Z,58.97
2022-12-31T02:07:09.752Z,59.00
2022-12-31T02:10:12.534Z,59.08
2022-12-31T02:13:15.472Z,59.07
2022-12-31T02:16:32.697Z,59.38
2022-12-31T02:20:16.584Z,59.34
2022-12-31T02:23:41.985Z,59.28
2022-12-31T02:26:45.303Z,59.14
2022-12-31T02:30:06.400Z,59.20
2022-12-31T02:33:13.789Z,59.23
2022-12-31T02:36:24.254Z,59.17
2022-12-31T02:39:27.366Z,59.19
2022-12-31T02:42:30.028Z,59.25
2022-12-31T02:45:40.201Z,59.27
2022-12-31T02:48:52.120Z,59.71
2022-12-31T02:51:57.805Z,60.95
2022-12-31T02:55:09.292Z,60.40
2022-12-31T02:58:47.476Z,59.96
2022-12-31T03:02:17.087Z,59.83
2022-12-31T03:05:24.749Z,59.70
2022-12-31T03:08:27.687Z,60.00
2022-12-31T03:11:48.631Z,59.87
2022-12-31T03:14:51.458Z,59.86
2022-12-31T03:17:58.710Z,60.02
2022-12-31T03:21:20.449Z,60.00
2022-12-31T03:24:42.527Z,60.06
2022-12-31T03:27:46.051Z,60.08
2022-12-31T03:30:51.832Z,60.08
2022-12-31T03:33:54.583Z,60.02
2022-12-31T03:36:56.937Z,60.24
2022-12-31T03:39:59.894Z,60.10
2022-12-31T03:43:01.991Z,60.06
2022-12-31T03:46:04.717Z,60.11
2022-12-31T03:49:06.903Z,60.14
2022-12-31T03:52:09.268Z,60.07
2022-12-31T03:55:12.050Z,60.35
2022-12-31T03:58:14.867Z,60.11
2022-12-31T04:01:17.781Z,60.33
2022-12-31T04:04:20.755Z,60.20
2022-12-31T04:07:22.871Z,60.17
2022-12-31T04:10:25.440Z,60.18
2022-12-31T04:13:27.703Z,60.11
2022-12-31T04:16:32.573Z,60.34
2022-12-31T04:19:35.220Z,60.45
2022-12-31T04:22:37.872Z,60.70
2022-12-31T04:25:40.223Z,60.67
2022-12-31T04:28:42.924Z,60.66
2022-12-31T04:31:45.237Z,60.51
2022-12-31T04:34:48.243Z,60.41
2022-12-31T04:37:50.407Z,60.60
2022-12-31T04:41:11.616Z,60.56
2022-12-31T04:44:15.353Z,60.34
2022-12-31T04:47:23.388Z,60.34
2022-12-31T04:50:26.174Z,60.51
2022-12-31T04:53:29.880Z,60.48
2022-12-31T04:56:33.560Z,60.50
2022-12-31T04:59:35.942Z,60.80
2022-12-31T05:02:38.082Z,60.84
2022-12-31T05:05:45.182Z,61.27
2022-12-31T05:08:48.364Z,61.49
2022-12-31T05:11:51.305Z,61.32
2022-12-31T05:14:53.518Z,61.13
2022-12-31T05:17:56.788Z,61.14
2022-12-31T05:20:59.902Z,61.21
2022-12-31T05:24:02.649Z,61.43
2022-12-31T05:27:04.816Z,61.20
2022-12-31T05:30:08.628Z,61.34
2022-12-31T05:33:11.867Z,61.39
2022-12-31T05:36:15.330Z,61.63
2022-12-31T05:39:18.294Z,61.28
2022-12-31T05:42:21.797Z,61.10
2022-12-31T05:45:30.433Z,61.18
2022-12-31T05:48:33.859Z,61.02
2022-12-31T05:51:35.966Z,60.93
2022-12-31T05:54:38.827Z,61.05
2022-12-31T05:57:41.103Z,61.33
2022-12-31T06:00:43.707Z,61.28
2022-12-31T06:03:46.134Z,61.29
2022-12-31T06:06:49.145Z,61.25
2022-12-31T06:09:51.497Z,61.59
2022-12-31T06:12:53.824Z,62.18
2022-12-31T06:15:55.855Z,62.46
2022-12-31T06:18:58.338Z,62.42
2022-12-31T06:22:00.366Z,62.39
2022-12-31T06:25:03.281Z,63.09
2022-12-31T06:28:06.137Z,62.91
2022-12-31T06:31:11.754Z,63.18
2022-12-31T06:34:13.936Z,62.74
2022-12-31T06:37:16.685Z,62.63
2022-12-31T06:40:18.969Z,62.75
2022-12-31T06:43:22.785Z,62.51
2022-12-31T06:46:25.202Z,63.21
2022-12-31T06:49:27.977Z,62.99
2022-12-31T06:52:30.201Z,63.03
2022-12-31T06:55:33.173Z,62.83
2022-12-31T06:58:35.590Z,62.66
2022-12-31T07:01:51.257Z,62.87
2022-12-31T07:05:02.510Z,62.81
2022-12-31T07:08:29.956Z,62.49
2022-12-31T07:11:43.668Z,62.37
2022-12-31T07:15:05.509Z,62.30
2022-12-31T07:18:34.861Z,62.94
2022-12-31T07:21:40.546Z,62.32
2022-12-31T07:24:44.774Z,61.69
2022-12-31T07:27:54.087Z,61.59
2022-12-31T07:31:13.836Z,61.24
2022-12-31T07:34:38.722Z,61.05
2022-12-31T07:37:49.491Z,61.13
2022-12-31T07:40:52.685Z,61.13
2022-12-31T07:44:07.818Z,61.68
2022-12-31T07:47:21.865Z,61.68
2022-12-31T07:50:24.465Z,61.36
2022-12-31T07:53:28.723Z,61.60
2022-12-31T07:56:33.945Z,61.80
2022-12-31T08:00:09.340Z,61.75
2022-12-31T08:03:42.370Z,61.78
2022-12-31T08:06:55.581Z,62.01
2022-12-31T08:10:06.386Z,61.89
2022-12-31T08:13:11.036Z,61.68
2022-12-31T08:16:14.581Z,61.79
2022-12-31T08:19:30.848Z,62.04
2022-12-31T08:22:42.060Z,62.95
2022-12-31T08:26:17.822Z,62.34
2022-12-31T08:30:49.577Z,62.39
2022-12-31T08:38:42.094Z,63.04
2022-12-31T08:41:47.846Z,62.31
2022-12-31T08:45:14.679Z,62.34
2022-12-31T08:48:39.931Z,62.30
2022-12-31T08:51:43.202Z,62.74
2022-12-31T08:54:46.155Z,62.55
2022-12-31T08:58:40.077Z,62.74
2022-12-31T09:01:49.315Z,62.66
2022-12-31T09:05:20.408Z,62.98
2022-12-31T09:08:34.882Z,63.12
2022-12-31T09:12:06.145Z,62.95
2022-12-31T09:15:17.627Z,63.23
2022-12-31T09:18:20.057Z,63.18
2022-12-31T09:21:23.010Z,63.31
2022-12-31T09:24:33.613Z,63.15
2022-12-31T09:27:52.009Z,63.23
2022-12-31T09:31:15.696Z,63.75
2022-12-31T09:34:29.151Z,62.97
2022-12-31T09:37:49.966Z,62.69
2022-12-31T09:41:17.876Z,62.80
2022-12-31T09:44:43.950Z,62.81
2022-12-31T09:48:04.486Z,63.60
2022-12-31T09:51:27.004Z,63.90
2022-12-31T09:54:40.638Z,63.16
2022-12-31T09:58:17.414Z,63.41
2022-12-31T10:01:31.798Z,62.26
2022-12-31T10:04:48.759Z,62.35
2022-12-31T10:08:16.302Z,62.66
2022-12-31T10:11:41.626Z,62.58
2022-12-31T10:14:59.801Z,62.38
2022-12-31T10:18:09.767Z,62.43
2022-12-31T10:21:18.528Z,63.03
2022-12-31T10:24:43.004Z,63.38
2022-12-31T10:27:53.651Z,63.58
2022-12-31T10:31:33.633Z,64.41
2022-12-31T10:35:12.077Z,64.14
2022-12-31T10:38:39.046Z,64.72
2022-12-31T10:42:12.476Z,63.69
2022-12-31T10:45:24.071Z,64.17
2022-12-31T10:48:45.479Z,64.25
2022-12-31T10:52:01.215Z,64.23
2022-12-31T10:55:41.823Z,63.89
2022-12-31T10:59:08.681Z,64.14
2022-12-31T11:02:29.688Z,63.97
2022-12-31T11:06:10.109Z,64.02
2022-12-31T11:09:34.704Z,63.71
2022-12-31T11:13:12.851Z,64.03
2022-12-31T11:16:43.282Z,63.75
2022-12-31T11:20:10.812Z,63.55
2022-12-31T11:23:48.378Z,63.68
2022-12-31T11:27:02.026Z,63.42
2022-12-31T11:30:11.136Z,63.84
2022-12-31T11:33:31.503Z,63.59
2022-12-31T11:37:25.972Z,63.67
2022-12-31T11:40:42.530Z,63.83
2022-12-31T11:44:01.493Z,63.83
2022-12-31T11:47:29.083Z,63.43
2022-12-31T11:50:52.418Z,62.95
2022-12-31T11:54:21.096Z,63.15
2022-12-31T11:57:34.391Z,63.65
2022-12-31T12:00:39.208Z,63.70
2022-12-31T12:03:44.278Z,63.63
2022-12-31T12:06:46.609Z,63.26
2022-12-31T12:09:50.271Z,63.34
2022-12-31T12:12:54.844Z,63.46
2022-12-31T12:16:00.501Z,63.58
2022-12-31T12:19:06.811Z,62.92
2022-12-31T12:22:13.082Z,63.16
2022-12-31T12:25:22.820Z,62.55
2022-12-31T12:28:28.002Z,62.37
2022-12-31T12:31:30.723Z,62.27
2022-12-31T12:34:34.196Z,61.98
2022-12-31T12:37:37.097Z,62.07
2022-12-31T12:40:40.985Z,62.42
2022-12-31T12:43:44.093Z,62.60
2022-12-31T12:46:52.521Z,62.35
2022-12-31T12:49:55.197Z,62.65
2022-12-31T12:53:19.203Z,63.29
2022-12-31T12:56:31.015Z,62.73
2022-12-31T12:59:56.620Z,64.06
2022-12-31T13:02:58.652Z,63.47
2022-12-31T13:06:28.355Z,63.52
2022-12-31T13:10:11.456Z,63.27
2022-12-31T13:13:35.797Z,63.37
2022-12-31T13:16:55.748Z,63.49
2022-12-31T13:20:20.374Z,63.37
2022-12-31T13:23:37.763Z,64.15
2022-12-31T13:26:48.619Z,64.62
2022-12-31T13:29:52.809Z,64.33
2022-12-31T13:33:07.315Z,65.03
2022-12-31T13:36:13.910Z,64.73
2022-12-31T13:39:28.009Z,65.31
2022-12-31T13:42:39.606Z,65.17
2022-12-31T13:45:45.415Z,65.75
2022-12-31T13:48:59.624Z,65.45
2022-12-31T13:52:17.346Z,65.06
2022-12-31T13:55:25.706Z,65.17
2022-12-31T13:58:40.336Z,65.53
2022-12-31T14:02:00.998Z,65.91
2022-12-31T14:05:23.272Z,65.38
2022-12-31T14:08:25.544Z,64.27
2022-12-31T14:12:23.433Z,64.63
2022-12-31T14:15:33.001Z,63.76
2022-12-31T14:18:48.906Z,63.58
2022-12-31T14:22:20.483Z,63.67
2022-12-31T14:25:31.430Z,64.19
2022-12-31T14:28:46.431Z,63.76
2022-12-31T14:32:17.792Z,62.81
2022-12-31T14:35:38.346Z,62.70
2022-12-31T14:39:05.335Z,62.52
2022-12-31T14:42:47.210Z,61.73
2022-12-31T14:46:11.246Z,61.82
2022-12-31T14:49:35.344Z,61.32
2022-12-31T14:53:00.022Z,61.22
2022-12-31T14:56:33.493Z,61.21
2022-12-31T14:59:40.413Z,61.02
2022-12-31T15:02:50.447Z,61.25
2022-12-31T15:06:17.912Z,60.94
2022-12-31T15:09:30.229Z,61.70
2022-12-31T15:12:43.596Z,61.78
2022-12-31T15:16:25.562Z,61.64
2022-12-31T15:20:10.132Z,61.45
2022-12-31T15:23:35.446Z,61.54
2022-12-31T15:26:49.445Z,61.88
2022-12-31T15:29:51.675Z,61.93
2022-12-31T15:32:58.690Z,62.27
2022-12-31T15:36:13.786Z,62.75
2022-12-31T15:39:16.354Z,63.28
2022-12-31T15:42:49.556Z,63.95
2022-12-31T15:45:55.841Z,63.36
2022-12-31T15:49:05.946Z,63.98
2022-12-31T15:52:22.250Z,64.55
2022-12-31T15:55:53.325Z,64.77
2022-12-31T15:58:59.511Z,65.92
2022-12-31T16:02:01.696Z,66.58
2022-12-31T16:05:04.368Z,64.45
2022-12-31T16:08:07.191Z,63.71
2022-12-31T16:11:10.308Z,62.98
2022-12-31T16:14:29.018Z,62.28
2022-12-31T16:17:34.445Z,62.45
2022-12-31T16:20:42.933Z,62.24
2022-12-31T16:23:50.839Z,62.91
2022-12-31T16:26:56.398Z,62.84
2022-12-31T16:30:04.826Z,62.61
2022-12-31T16:33:14.702Z,62.81
2022-12-31T16:36:25.051Z,63.12
2022-12-31T16:39:37.158Z,63.37
2022-12-31T16:42:44.300Z,63.06
2022-12-31T16:45:47.302Z,63.57
2022-12-31T16:48:54.413Z,63.98
2022-12-31T16:52:29.026Z,64.08
2022-12-31T16:55:33.481Z,64.55
2022-12-31T16:58:40.093Z,63.37
2022-12-31T17:01:43.441Z,63.29
2022-12-31T17:04:55.589Z,62.78
2022-12-31T17:08:14.710Z,63.17
2022-12-31T17:11:24.450Z,63.37
2022-12-31T17:14:29.202Z,63.09
2022-12-31T17:17:36.358Z,63.75
2022-12-31T17:20:39.178Z,63.00
2022-12-31T17:23:42.279Z,63.72
2022-12-31T17:26:46.131Z,63.63
2022-12-31T17:29:48.739Z,63.42
2022-12-31T17:32:53.208Z,63.76
2022-12-31T17:36:20.842Z,63.62
2022-12-31T17:39:24.374Z,63.69
2022-12-31T17:42:36.626Z,63.36
2022-12-31T17:45:42.133Z,63.56
2022-12-31T17:48:46.177Z,63.04
2022-12-31T17:51:48.604Z,63.55
2022-12-31T17:54:51.933Z,63.16
2022-12-31T17:57:57.266Z,63.06
2022-12-31T18:00:59.747Z,62.87
2022-12-31T18:04:03.021Z,62.98
2022-12-31T18:07:05.102Z,62.61
2022-12-31T18:10:07.734Z,62.97
2022-12-31T18:13:24.840Z,62.49
2022-12-31T18:16:28.762Z,62.92
2022-12-31T18:20:03.032Z,62.30
2022-12-31T18:22:53.764Z,62.87
2022-12-31T18:25:55.734Z,61.95
2022-12-31T18:29:01.541Z,62.97
2022-12-31T18:32:03.670Z,62.33
2022-12-31T18:35:32.910Z,62.82
2022-12-31T18:38:34.851Z,62.14
2022-12-31T18:41:45.701Z,62.06
2022-12-31T18:44:48.306Z,61.41
2022-12-31T18:47:50.963Z,61.74
2022-12-31T18:50:53.766Z,61.71
2022-12-31T18:53:57.290Z,62.06
2022-12-31T18:56:59.326Z,62.01
2022-12-31T19:00:02.151Z,61.55
2022-12-31T19:03:07.306Z,62.30
2022-12-31T19:06:10.121Z,61.86
2022-12-31T19:09:43.285Z,60.38
2022-12-31T19:12:38.779Z,62.08
2022-12-31T19:15:48.903Z,62.00
2022-12-31T19:18:51.570Z,61.05
2022-12-31T19:21:53.632Z,60.15
2022-12-31T19:24:56.977Z,60.55
2022-12-31T19:28:01.191Z,60.92
2022-12-31T19:31:04.097Z,60.50
2022-12-31T19:34:06.449Z,61.09
2022-12-31T19:37:15.444Z,60.27
2022-12-31T19:40:23.732Z,60.18
2022-12-31T19:43:26.297Z,60.47
2022-12-31T19:46:28.480Z,60.19
2022-12-31T19:49:31.140Z,59.10
2022-12-31T19:52:33.318Z,59.72
2022-12-31T19:55:35.913Z,59.35
2022-12-31T19:58:38.026Z,59.51
2022-12-31T20:01:40.484Z,59.26
2022-12-31T20:04:42.916Z,58.75
2022-12-31T20:07:46.677Z,59.09
2022-12-31T20:10:48.816Z,59.29
2022-12-31T20:13:53.946Z,59.46
2022-12-31T20:16:56.847Z,59.51
2022-12-31T20:20:00.213Z,59.11
2022-12-31T20:23:05.195Z,58.94
2022-12-31T20:26:09.008Z,58.67
2022-12-31T20:29:10.945Z,59.23
2022-12-31T20:32:13.330Z,58.92
2022-12-31T20:35:15.719Z,59.04
2022-12-31T20:38:17.976Z,58.77
2022-12-31T20:41:22.498Z,58.67
2022-12-31T20:44:25.542Z,59.07
2022-12-31T20:47:27.633Z,59.06
2022-12-31T20:50:30.034Z,58.70
2022-12-31T20:53:32.311Z,58.78
2022-12-31T20:56:37.730Z,58.36
2022-12-31T20:59:40.017Z,58.57
2022-12-31T21:02:44.970Z,58.73
2022-12-31T21:05:53.587Z,58.83
2022-12-31T21:08:59.011Z,58.80
2022-12-31T21:12:19.930Z,58.83
2022-12-31T21:15:22.518Z,59.03
2022-12-31T21:22:11.763Z,58.59
2022-12-31T21:25:14.215Z,58.95
2022-12-31T21:28:16.214Z,58.92
2022-12-31T21:31:19.312Z,58.61
2022-12-31T21:34:21.375Z,58.56
2022-12-31T21:37:24.196Z,58.43
2022-12-31T21:40:26.130Z,58.48
2022-12-31T21:43:30.936Z,58.38
2022-12-31T21:46:33.604Z,58.27
2022-12-31T21:49:36.311Z,58.67
2022-12-31T21:52:38.385Z,58.54
2022-12-31T21:56:00.367Z,62.66
2022-12-31T21:59:21.694Z,60.18
2022-12-31T22:02:43.375Z,59.53
2022-12-31T22:06:10.981Z,59.43
2022-12-31T22:09:13.583Z,59.61
2022-12-31T22:12:16.500Z,59.37
2022-12-31T22:15:20.607Z,59.56
2022-12-31T22:18:23.377Z,59.17
2022-12-31T22:21:26.971Z,59.63
2022-12-31T22:24:29.788Z,59.23
2022-12-31T22:27:32.253Z,58.87
2022-12-31T22:30:35.045Z,59.63
2022-12-31T22:33:37.734Z,59.44
2022-12-31T22:36:39.967Z,59.39
2022-12-31T22:39:43.295Z,58.63
2022-12-31T22:42:46.978Z,58.70
2022-12-31T22:45:49.375Z,59.00
2022-12-31T22:48:52.891Z,58.51
2022-12-31T22:51:59.726Z,59.08
2022-12-31T22:55:06.540Z,58.77
2022-12-31T22:58:10.389Z,59.03
2022-12-31T23:01:20.769Z,58.81
2022-12-31T23:04:23.582Z,58.89
2022-12-31T23:07:27.342Z,58.81
2022-12-31T23:10:52.179Z,58.57
2022-12-31T23:14:14.919Z,58.70
2022-12-31T23:17:45.855Z,58.79
2022-12-31T23:21:06.389Z,58.47
2022-12-31T23:24:17.272Z,58.85
2022-12-31T23:27:22.647Z,59.43
2022-12-31T23:30:25.230Z,58.87
2022-12-31T23:33:27.568Z,59.29
2022-12-31T23:36:31.142Z,58.82
2022-12-31T23:39:33.491Z,58.38
2022-12-31T23:42:37.071Z,57.87
2022-12-31T23:45:39.774Z,58.58
2022-12-31T23:48:43.661Z,58.29
2022-12-31T23:51:46.035Z,58.05
2022-12-31T23:54:48.829Z,58.03
2022-12-31T23:57:51.170Z,58.18
